Winterthur, Switzerland
Current Conditions -  °F | °C
As of 9:50 PM on Tuesday 27 Jan 2015 (Local Time) from LSMD Reporting Station
Snow Showers Snow Showers  
Wind Chill: 30°   Ceiling: 4000
Heat Index: 34°   Visibility: 6mi
Dew Point: 30°   Wind: 5mph
Humidity: 87%   Direction: 320°NW
Pressure: 30.24"   Gusts: NA
Location:  47.51°N, 8.72°E
Report Text: LSMD 272050Z AUTO 32004KT 290V360 9999NDV -SHRASN SCT013 BKN040 OVC096 01/M01 Q1024 RMK WHT
Loading
Personal Weather Stations






























Interactive Weather Map New forecast layout! Learn more

10-Day Weather Forecast

Advertisements
Track Severe Weather on mobile